createdAt,value
2022-12-23T00:01:30.364Z,70.77
2022-12-23T00:03:59.239Z,70.40
2022-12-23T00:06:26.513Z,70.11
2022-12-23T00:08:59.021Z,69.40
2022-12-23T00:11:27.621Z,69.42
2022-12-23T00:14:20.476Z,69.23
2022-12-23T00:16:47.733Z,68.79
2022-12-23T00:19:14.680Z,69.53
2022-12-23T00:21:41.479Z,69.63
2022-12-23T00:24:08.431Z,70.84
2022-12-23T00:26:35.376Z,69.80
2022-12-23T00:29:02.333Z,69.63
2022-12-23T00:31:29.204Z,69.36
2022-12-23T00:33:56.116Z,70.26
2022-12-23T00:36:24.853Z,69.05
2022-12-23T00:39:10.238Z,69.71
2022-12-23T00:41:57.284Z,70.12
2022-12-23T00:44:24.621Z,69.42
2022-12-23T00:46:51.828Z,69.46
2022-12-23T00:49:38.411Z,69.43
2022-12-23T00:52:07.249Z,69.82
2022-12-23T00:54:34.119Z,70.60
2022-12-23T00:57:01.145Z,69.59
2022-12-23T00:59:28.063Z,70.19
2022-12-23T01:02:13.441Z,69.83
2022-12-23T01:04:58.887Z,69.54
2022-12-23T01:07:26.030Z,68.74
2022-12-23T01:09:52.875Z,70.11
2022-12-23T01:12:20.080Z,70.32
2022-12-23T01:14:46.993Z,69.76
2022-12-23T01:17:14.009Z,70.08
2022-12-23T01:19:40.919Z,69.48
2022-12-23T01:22:07.885Z,69.58
2022-12-23T01:24:34.707Z,69.96
2022-12-23T01:27:01.783Z,70.60
2022-12-23T01:29:29.106Z,70.37
2022-12-23T01:31:56.095Z,70.15
2022-12-23T01:34:23.097Z,69.89
2022-12-23T01:36:49.885Z,70.03
2022-12-23T01:39:16.794Z,69.29
2022-12-23T01:42:02.257Z,70.36
2022-12-23T01:44:53.824Z,69.88
2022-12-23T01:47:32.002Z,69.66
2022-12-23T01:50:14.000Z,70.97
2022-12-23T01:52:47.671Z,70.50
2022-12-23T01:55:18.598Z,69.81
2022-12-23T01:57:47.607Z,70.63
2022-12-23T02:00:34.505Z,69.77
2022-12-23T02:03:20.072Z,69.83
2022-12-23T02:05:48.332Z,69.59
2022-12-23T02:08:35.009Z,70.19
2022-12-23T02:11:21.903Z,70.50
2022-12-23T02:14:41.913Z,69.75
2022-12-23T02:17:36.009Z,70.12
2022-12-23T02:20:14.558Z,70.80
2022-12-23T02:22:59.412Z,70.27
2022-12-23T02:25:41.158Z,69.89
2022-12-23T02:28:10.820Z,70.52
2022-12-23T02:30:48.525Z,70.34
2022-12-23T02:33:39.513Z,70.43
2022-12-23T02:36:38.386Z,71.15
2022-12-23T02:39:08.187Z,71.52
2022-12-23T02:41:41.124Z,72.63
2022-12-23T02:44:29.556Z,72.34
2022-12-23T02:47:06.861Z,71.46
2022-12-23T02:49:46.653Z,70.21
2022-12-23T02:52:17.193Z,70.48
2022-12-23T02:54:58.940Z,70.49
2022-12-23T02:57:32.654Z,69.80
2022-12-23T03:00:01.698Z,70.64
2022-12-23T03:02:28.632Z,70.88
2022-12-23T03:04:55.603Z,70.52
2022-12-23T03:07:35.648Z,72.10
2022-12-23T03:10:12.548Z,72.25
2022-12-23T03:12:54.248Z,72.62
2022-12-23T03:15:37.621Z,73.10
2022-12-23T03:18:25.602Z,72.71
2022-12-23T03:21:16.961Z,72.88
2022-12-23T03:23:57.975Z,72.90
2022-12-23T03:26:38.685Z,71.97
2022-12-23T03:29:43.892Z,72.18
2022-12-23T03:32:14.544Z,71.94
2022-12-23T03:34:45.742Z,72.07
2022-12-23T03:37:16.066Z,72.03
2022-12-23T03:39:50.093Z,72.29
2022-12-23T03:42:28.582Z,72.48
2022-12-23T03:45:28.443Z,71.43
2022-12-23T03:47:48.615Z,71.72
2022-12-23T03:50:19.579Z,70.43
2022-12-23T03:52:55.748Z,70.89
2022-12-23T03:55:35.380Z,71.68
2022-12-23T03:58:12.288Z,70.92
2022-12-23T04:01:07.932Z,71.35
2022-12-23T04:03:48.320Z,71.91
2022-12-23T04:06:17.755Z,72.02
2022-12-23T04:08:46.534Z,72.25
2022-12-23T04:11:13.780Z,72.76
2022-12-23T04:13:40.819Z,72.29
2022-12-23T04:16:08.185Z,73.57
2022-12-23T04:18:35.026Z,73.47
2022-12-23T04:21:01.862Z,71.40
2022-12-23T04:23:28.884Z,72.00
2022-12-23T04:25:55.796Z,71.81
2022-12-23T04:28:23.064Z,71.62
2022-12-23T04:30:49.919Z,71.37
2022-12-23T04:33:16.869Z,71.51
2022-12-23T04:35:43.771Z,71.02
2022-12-23T04:38:11.404Z,69.97
2022-12-23T04:40:38.221Z,70.99
2022-12-23T04:43:05.121Z,70.59
2022-12-23T04:45:32.878Z,71.34
2022-12-23T04:47:59.812Z,70.78
2022-12-23T04:50:26.635Z,71.11
2022-12-23T04:52:53.459Z,71.30
2022-12-23T04:55:20.480Z,71.63
2022-12-23T04:57:47.283Z,71.32
2022-12-23T05:00:14.672Z,70.89
2022-12-23T05:02:41.612Z,70.75
2022-12-23T05:05:09.007Z,70.86
2022-12-23T05:07:35.944Z,71.12
2022-12-23T05:10:02.841Z,70.38
2022-12-23T05:12:30.479Z,70.21
2022-12-23T05:14:57.595Z,70.78
2022-12-23T05:17:24.415Z,70.53
2022-12-23T05:19:51.434Z,70.77
2022-12-23T05:22:18.286Z,70.24
2022-12-23T05:24:45.144Z,70.17
2022-12-23T05:27:12.034Z,71.19
2022-12-23T05:29:38.949Z,70.14
2022-12-23T05:32:06.032Z,70.38
2022-12-23T05:34:32.951Z,70.66
2022-12-23T05:37:03.150Z,69.96
2022-12-23T05:39:30.145Z,70.66
2022-12-23T05:41:57.062Z,71.01
2022-12-23T05:44:23.931Z,70.00
2022-12-23T05:46:50.757Z,70.82
2022-12-23T05:49:17.743Z,71.44
2022-12-23T05:51:44.648Z,70.52
2022-12-23T05:54:11.524Z,69.93
2022-12-23T05:56:38.330Z,70.32
2022-12-23T05:59:05.245Z,69.93
2022-12-23T06:01:32.449Z,69.49
2022-12-23T06:03:59.473Z,68.56
2022-12-23T06:06:26.464Z,68.20
2022-12-23T06:08:59.146Z,67.10
2022-12-23T06:11:26.515Z,66.80
2022-12-23T06:13:53.285Z,67.82
2022-12-23T06:16:20.225Z,67.93
2022-12-23T06:18:47.096Z,68.45
2022-12-23T06:21:13.939Z,68.03
2022-12-23T06:23:40.829Z,67.90
2022-12-23T06:26:07.670Z,66.71
2022-12-23T06:28:34.521Z,61.50
2022-12-23T06:31:01.410Z,56.80
2022-12-23T06:33:28.326Z,54.98
2022-12-23T06:35:55.137Z,55.86
2022-12-23T06:38:22.121Z,54.59
2022-12-23T06:40:49.042Z,54.91
2022-12-23T06:43:15.992Z,56.03
2022-12-23T06:45:47.049Z,56.78
2022-12-23T06:48:13.963Z,55.58
2022-12-23T06:50:40.851Z,54.03
2022-12-23T06:53:08.488Z,53.47
2022-12-23T06:55:35.492Z,52.80
2022-12-23T06:58:02.320Z,54.11
2022-12-23T07:00:29.264Z,56.74
2022-12-23T07:02:56.292Z,60.13
2022-12-23T07:05:23.293Z,61.23
2022-12-23T07:07:50.209Z,62.18
2022-12-23T07:10:17.055Z,62.17
2022-12-23T07:12:50.382Z,63.04
2022-12-23T07:15:17.876Z,63.77
2022-12-23T07:17:44.986Z,63.86
2022-12-23T07:20:13.654Z,63.82
2022-12-23T07:22:40.591Z,64.63
2022-12-23T07:25:08.204Z,65.33
2022-12-23T07:27:35.110Z,65.49
2022-12-23T07:30:01.964Z,64.88
2022-12-23T07:32:28.829Z,63.96
2022-12-23T07:34:55.642Z,64.04
2022-12-23T07:37:22.539Z,61.80
2022-12-23T07:39:49.312Z,58.63
2022-12-23T07:42:43.594Z,55.81
2022-12-23T07:45:04.545Z,55.10
2022-12-23T07:47:31.542Z,53.96
2022-12-23T07:49:58.411Z,56.61
2022-12-23T07:52:25.246Z,58.27
2022-12-23T07:54:52.119Z,60.76
2022-12-23T07:57:19.017Z,61.97
2022-12-23T07:59:45.860Z,61.68
2022-12-23T08:02:12.798Z,60.84
2022-12-23T08:04:45.809Z,61.33
2022-12-23T08:07:13.212Z,61.29
2022-12-23T08:09:40.031Z,60.99
2022-12-23T08:12:07.195Z,60.42
2022-12-23T08:14:34.065Z,60.67
2022-12-23T08:17:00.987Z,60.21
2022-12-23T08:19:27.931Z,58.95
2022-12-23T08:21:54.730Z,59.60
2022-12-23T08:24:21.563Z,60.87
2022-12-23T08:26:48.402Z,61.45
2022-12-23T08:29:15.300Z,61.80
2022-12-23T08:31:42.132Z,61.08
2022-12-23T08:34:09.109Z,59.12
2022-12-23T08:36:36.690Z,59.93
2022-12-23T08:39:07.376Z,59.64
2022-12-23T08:41:38.574Z,60.07
2022-12-23T08:44:06.004Z,59.24
2022-12-23T08:46:33.096Z,59.18
2022-12-23T08:49:00.600Z,60.04
2022-12-23T08:51:28.409Z,59.29
2022-12-23T08:54:00.527Z,59.02
2022-12-23T08:56:31.769Z,58.88
2022-12-23T08:58:59.083Z,58.48
2022-12-23T09:01:29.088Z,59.56
2022-12-23T09:03:56.905Z,58.88
2022-12-23T09:06:29.972Z,60.40
2022-12-23T09:08:58.177Z,59.48
2022-12-23T09:11:27.018Z,59.34
2022-12-23T09:13:54.524Z,61.78
2022-12-23T09:16:22.002Z,61.25
2022-12-23T09:18:48.921Z,61.28
2022-12-23T09:21:20.512Z,61.50
2022-12-23T09:23:48.091Z,63.38
2022-12-23T09:26:21.675Z,62.57
2022-12-23T09:28:48.696Z,62.80
2022-12-23T09:31:15.799Z,62.38
2022-12-23T09:33:43.264Z,64.09
2022-12-23T09:36:10.225Z,63.23
2022-12-23T09:38:37.829Z,64.02
2022-12-23T09:41:42.908Z,62.90
2022-12-23T09:44:19.239Z,64.14
2022-12-23T09:46:53.703Z,62.86
2022-12-23T09:49:22.675Z,62.61
2022-12-23T09:51:54.220Z,63.89
2022-12-23T09:54:26.236Z,63.62
2022-12-23T09:57:00.507Z,63.49
2022-12-23T09:59:49.082Z,63.28
2022-12-23T10:02:28.650Z,64.49
2022-12-23T10:05:02.957Z,64.12
2022-12-23T10:07:51.422Z,63.48
2022-12-23T10:10:47.194Z,62.40
2022-12-23T10:13:40.383Z,63.68
2022-12-23T10:16:12.624Z,62.48
2022-12-23T10:18:42.294Z,61.61
2022-12-23T10:21:47.286Z,59.86
2022-12-23T10:24:24.166Z,57.87
2022-12-23T10:27:02.818Z,55.82
2022-12-23T10:29:34.154Z,54.69
2022-12-23T10:32:27.854Z,56.02
2022-12-23T10:35:15.848Z,56.23
2022-12-23T10:37:49.170Z,57.14
2022-12-23T10:40:40.453Z,57.76
2022-12-23T10:43:35.820Z,57.96
2022-12-23T10:46:19.631Z,57.09
2022-12-23T10:48:46.494Z,56.36
2022-12-23T10:51:19.963Z,55.45
2022-12-23T10:53:52.436Z,52.82
2022-12-23T10:56:20.557Z,52.32
2022-12-23T10:58:51.870Z,51.70
2022-12-23T11:01:26.636Z,52.27
2022-12-23T11:04:13.347Z,51.96
2022-12-23T11:06:55.818Z,49.66
2022-12-23T11:09:39.982Z,51.28
2022-12-23T11:12:10.282Z,51.46
2022-12-23T11:14:43.242Z,52.62
2022-12-23T11:17:24.103Z,52.01
2022-12-23T11:20:14.460Z,53.06
2022-12-23T11:23:03.052Z,52.84
2022-12-23T11:25:41.701Z,52.66
2022-12-23T11:28:15.452Z,51.67
2022-12-23T11:30:56.978Z,49.78
2022-12-23T11:33:27.046Z,49.26
2022-12-23T11:36:13.227Z,49.29
2022-12-23T11:38:58.499Z,50.12
2022-12-23T11:41:30.464Z,48.68
2022-12-23T11:44:00.303Z,48.03
2022-12-23T11:46:31.394Z,47.34
2022-12-23T11:49:14.188Z,47.04
2022-12-23T11:51:41.959Z,46.78
2022-12-23T11:54:16.076Z,46.25
2022-12-23T11:56:43.579Z,46.11
2022-12-23T11:59:42.063Z,46.96
2022-12-23T12:02:32.804Z,46.90
2022-12-23T12:05:16.595Z,47.32
2022-12-23T12:07:45.268Z,47.36
2022-12-23T12:10:25.850Z,47.17
2022-12-23T12:12:57.208Z,47.61
2022-12-23T12:15:43.390Z,46.94
2022-12-23T12:18:17.145Z,46.83
2022-12-23T12:20:53.510Z,47.01
2022-12-23T12:23:34.220Z,46.49
2022-12-23T12:26:05.357Z,46.99
2022-12-23T12:28:40.460Z,46.19
2022-12-23T12:31:43.928Z,45.87
2022-12-23T12:34:35.686Z,45.73
2022-12-23T12:37:23.239Z,46.34
2022-12-23T12:39:53.669Z,45.85
2022-12-23T12:42:44.469Z,45.65
2022-12-23T12:45:17.144Z,45.08
2022-12-23T12:48:18.580Z,45.26
2022-12-23T12:51:09.155Z,45.28
2022-12-23T12:53:43.107Z,44.68
2022-12-23T12:56:39.196Z,44.89
2022-12-23T12:59:05.939Z,43.00
2022-12-23T13:02:15.455Z,33.31
2022-12-23T13:05:09.713Z,25.26
2022-12-23T13:07:55.282Z,22.82
2022-12-23T13:10:48.950Z,21.50
2022-12-23T13:13:35.835Z,23.92
2022-12-23T13:16:13.581Z,23.21
2022-12-23T13:18:43.323Z,28.28
2022-12-23T13:21:16.664Z,34.39
2022-12-23T13:24:03.904Z,38.57
2022-12-23T13:26:39.192Z,40.74
2022-12-23T13:29:33.854Z,43.48
2022-12-23T13:32:30.046Z,44.79
2022-12-23T13:35:22.757Z,45.02
2022-12-23T13:38:13.873Z,45.64
2022-12-23T13:40:59.179Z,46.71
2022-12-23T13:43:36.184Z,46.96
2022-12-23T13:46:09.683Z,47.66
2022-12-23T13:49:02.090Z,47.87
2022-12-23T13:51:49.331Z,47.42
2022-12-23T13:54:22.279Z,48.53
2022-12-23T13:56:59.618Z,47.90
2022-12-23T13:59:41.679Z,49.00
2022-12-23T14:03:01.955Z,48.86
2022-12-23T14:05:34.943Z,49.44
2022-12-23T14:08:06.811Z,51.27
2022-12-23T14:10:35.023Z,52.00
2022-12-23T14:13:08.548Z,53.68
2022-12-23T14:15:43.286Z,53.11
2022-12-23T14:18:25.518Z,54.05
2022-12-23T14:21:39.010Z,53.98
2022-12-23T14:24:43.102Z,54.39
2022-12-23T14:27:25.305Z,54.93
2022-12-23T14:30:29.589Z,55.35
2022-12-23T14:33:02.830Z,56.40
2022-12-23T14:35:38.502Z,56.68
2022-12-23T14:38:15.136Z,57.90
2022-12-23T14:40:41.915Z,57.09
2022-12-23T14:43:33.351Z,58.36
2022-12-23T14:46:05.019Z,57.70
2022-12-23T14:48:34.786Z,58.36
2022-12-23T14:51:22.528Z,58.29
2022-12-23T14:53:52.549Z,58.40
2022-12-23T14:56:19.383Z,59.35
2022-12-23T14:58:46.128Z,59.78
2022-12-23T15:01:27.736Z,60.00
2022-12-23T15:04:01.259Z,59.56
2022-12-23T15:06:43.174Z,59.04
2022-12-23T15:09:20.799Z,60.31
2022-12-23T15:11:48.226Z,60.55
2022-12-23T15:14:25.475Z,59.91
2022-12-23T15:16:52.452Z,60.80
2022-12-23T15:19:27.045Z,60.62
2022-12-23T15:22:21.092Z,60.48
2022-12-23T15:24:49.566Z,61.01
2022-12-23T15:27:29.391Z,60.97
2022-12-23T15:29:57.760Z,61.78
2022-12-23T15:32:26.855Z,62.07
2022-12-23T15:35:01.187Z,62.99
2022-12-23T15:37:30.966Z,62.28
2022-12-23T15:40:04.856Z,62.85
2022-12-23T15:42:38.556Z,62.89
2022-12-23T15:45:23.845Z,62.88
2022-12-23T15:47:51.043Z,64.35
2022-12-23T15:50:19.396Z,63.30
2022-12-23T15:52:48.837Z,62.99
2022-12-23T15:55:29.819Z,63.42
2022-12-23T15:57:58.025Z,62.66
2022-12-23T16:00:38.592Z,62.94
2022-12-23T16:03:13.616Z,62.88
2022-12-23T16:05:44.942Z,63.22
2022-12-23T16:08:16.207Z,63.54
2022-12-23T16:11:15.776Z,64.67
2022-12-23T16:14:21.444Z,64.47
2022-12-23T16:16:48.456Z,64.40
2022-12-23T16:19:47.659Z,64.40
2022-12-23T16:22:21.003Z,63.71
2022-12-23T16:24:56.963Z,65.06
2022-12-23T16:27:34.758Z,64.07
2022-12-23T16:30:21.412Z,63.98
2022-12-23T16:32:54.761Z,64.10
2022-12-23T16:35:40.837Z,64.16
2022-12-23T16:38:17.062Z,65.15
2022-12-23T16:40:47.238Z,65.48
2022-12-23T16:43:14.312Z,65.44
2022-12-23T16:45:42.043Z,65.45
2022-12-23T16:48:20.083Z,66.70
2022-12-23T16:50:48.643Z,65.47
2022-12-23T16:53:15.934Z,65.55
2022-12-23T16:55:50.248Z,65.22
2022-12-23T16:58:19.889Z,65.93
2022-12-23T17:00:47.019Z,65.85
2022-12-23T17:03:18.157Z,66.74
2022-12-23T17:05:45.965Z,66.35
2022-12-23T17:08:13.035Z,66.79
2022-12-23T17:10:42.262Z,66.32
2022-12-23T17:13:12.206Z,66.88
2022-12-23T17:15:39.075Z,67.27
2022-12-23T17:18:12.544Z,66.78
2022-12-23T17:20:39.423Z,66.50
2022-12-23T17:23:08.925Z,66.79
2022-12-23T17:25:35.739Z,66.93
2022-12-23T17:28:02.681Z,66.61
2022-12-23T17:30:30.088Z,67.48
2022-12-23T17:32:59.858Z,66.85
2022-12-23T17:35:27.028Z,67.90
2022-12-23T17:37:53.972Z,67.62
2022-12-23T17:40:20.988Z,68.25
2022-12-23T17:42:48.321Z,68.31
2022-12-23T17:45:23.896Z,68.77
2022-12-23T17:47:50.836Z,68.48
2022-12-23T17:50:17.808Z,68.16
2022-12-23T17:52:44.738Z,68.81
2022-12-23T17:55:20.725Z,68.64
2022-12-23T17:57:47.953Z,68.33
2022-12-23T18:00:25.152Z,65.35
2022-12-23T18:02:57.375Z,66.29
2022-12-23T18:05:32.499Z,67.31
2022-12-23T18:08:01.007Z,67.97
2022-12-23T18:10:39.173Z,68.79
2022-12-23T18:13:15.711Z,68.59
2022-12-23T18:15:44.346Z,68.97
2022-12-23T18:18:28.931Z,68.25
2022-12-23T18:21:02.555Z,67.85
2022-12-23T18:23:31.921Z,68.92
2022-12-23T18:25:59.349Z,68.55
2022-12-23T18:28:26.796Z,69.54
2022-12-23T18:30:56.988Z,68.72
2022-12-23T18:33:28.762Z,69.28
2022-12-23T18:35:56.386Z,70.05
2022-12-23T18:38:23.373Z,71.05
2022-12-23T18:40:53.977Z,70.86
2022-12-23T18:43:23.320Z,70.83
2022-12-23T18:45:53.542Z,70.07
2022-12-23T18:48:21.785Z,70.30
2022-12-23T18:50:48.969Z,69.48
2022-12-23T18:53:24.532Z,69.63
2022-12-23T18:55:52.868Z,69.57
2022-12-23T18:58:20.322Z,70.19
2022-12-23T19:00:49.337Z,71.30
2022-12-23T19:03:23.493Z,71.30
2022-12-23T19:05:51.502Z,70.51
2022-12-23T19:08:25.492Z,71.74
2022-12-23T19:10:54.774Z,71.41
2022-12-23T19:13:22.079Z,71.02
2022-12-23T19:15:49.171Z,71.13
2022-12-23T19:18:18.985Z,71.87
2022-12-23T19:20:47.388Z,70.83
2022-12-23T19:23:14.790Z,70.81
2022-12-23T19:25:45.183Z,70.23
2022-12-23T19:28:19.260Z,70.14
2022-12-23T19:30:46.479Z,71.48
2022-12-23T19:33:13.748Z,69.96
2022-12-23T19:35:44.558Z,69.89
2022-12-23T19:38:12.549Z,70.78
2022-12-23T19:40:40.275Z,69.88
2022-12-23T19:43:07.598Z,70.75
2022-12-23T19:45:34.668Z,69.74
2022-12-23T19:48:01.639Z,68.60
2022-12-23T19:50:28.501Z,67.95
2022-12-23T19:52:56.588Z,68.85
2022-12-23T19:55:23.874Z,69.82
2022-12-23T19:57:51.822Z,68.73
2022-12-23T20:00:18.684Z,69.14
2022-12-23T20:02:45.641Z,67.51
2022-12-23T20:05:12.597Z,67.44
2022-12-23T20:07:39.470Z,68.82
2022-12-23T20:10:07.130Z,67.48
2022-12-23T20:12:34.006Z,66.15
2022-12-23T20:15:00.986Z,66.34
2022-12-23T20:17:27.806Z,64.69
2022-12-23T20:19:54.716Z,66.92
2022-12-23T20:22:21.887Z,65.52
2022-12-23T20:24:49.969Z,64.63
2022-12-23T20:27:20.101Z,65.05
2022-12-23T20:29:49.567Z,66.75
2022-12-23T20:32:16.613Z,65.75
2022-12-23T20:34:43.543Z,67.67
2022-12-23T20:37:11.831Z,67.34
2022-12-23T20:39:38.722Z,68.03
2022-12-23T20:42:05.554Z,66.51
2022-12-23T20:44:34.945Z,66.91
2022-12-23T20:47:03.568Z,66.83
2022-12-23T20:49:30.660Z,66.50
2022-12-23T20:51:57.583Z,67.27
2022-12-23T20:54:31.697Z,66.44
2022-12-23T20:56:59.893Z,66.22
2022-12-23T20:59:26.829Z,66.28
2022-12-23T21:01:53.812Z,65.85
2022-12-23T21:04:20.907Z,65.46
2022-12-23T21:06:48.277Z,66.28
2022-12-23T21:09:15.920Z,66.25
2022-12-23T21:11:45.003Z,66.73
2022-12-23T21:14:12.354Z,65.67
2022-12-23T21:16:39.610Z,65.85
2022-12-23T21:19:08.754Z,65.59
2022-12-23T21:21:35.959Z,65.01
2022-12-23T21:24:04.770Z,65.91
2022-12-23T21:26:33.334Z,66.59
2022-12-23T21:29:02.015Z,65.84
2022-12-23T21:31:31.052Z,66.82
2022-12-23T21:33:58.579Z,66.01
2022-12-23T21:36:29.418Z,66.21
2022-12-23T21:38:56.906Z,65.57
2022-12-23T21:41:31.759Z,66.06
2022-12-23T21:43:59.852Z,66.80
2022-12-23T21:46:28.179Z,67.69
2022-12-23T21:48:59.168Z,68.33
2022-12-23T21:51:33.327Z,68.42
2022-12-23T21:54:05.686Z,69.02
2022-12-23T21:56:33.066Z,67.75
2022-12-23T21:59:02.652Z,68.96
2022-12-23T22:01:30.051Z,68.87
2022-12-23T22:03:57.475Z,69.17
2022-12-23T22:06:29.441Z,69.49
2022-12-23T22:08:57.522Z,70.14
2022-12-23T22:11:28.967Z,68.65
2022-12-23T22:13:57.522Z,69.25
2022-12-23T22:16:26.467Z,69.18
2022-12-23T22:18:54.004Z,69.39
2022-12-23T22:21:23.337Z,70.02
2022-12-23T22:23:51.442Z,69.31
2022-12-23T22:26:25.126Z,69.33
2022-12-23T22:28:57.208Z,70.01
2022-12-23T22:31:42.344Z,69.33
2022-12-23T22:34:13.647Z,69.34
2022-12-23T22:36:40.710Z,70.70
2022-12-23T22:39:08.205Z,70.91
2022-12-23T22:41:35.265Z,70.63
2022-12-23T22:44:02.157Z,70.74
2022-12-23T22:46:29.967Z,70.18
2022-12-23T22:48:58.772Z,71.65
2022-12-23T22:51:28.391Z,69.89
2022-12-23T22:53:56.140Z,70.01
2022-12-23T22:56:24.375Z,70.95
2022-12-23T22:58:53.801Z,70.74
2022-12-23T23:01:25.462Z,70.48
2022-12-23T23:03:57.470Z,71.49
2022-12-23T23:06:29.933Z,71.58
2022-12-23T23:08:57.315Z,71.79
2022-12-23T23:11:26.068Z,71.07
2022-12-23T23:13:53.599Z,71.41
2022-12-23T23:16:21.263Z,72.08
2022-12-23T23:18:48.544Z,72.08
2022-12-23T23:21:15.997Z,72.09
2022-12-23T23:23:42.854Z,72.08
2022-12-23T23:26:10.388Z,71.86
2022-12-23T23:28:39.518Z,71.78
2022-12-23T23:31:40.464Z,71.61
2022-12-23T23:33:54.535Z,72.29
2022-12-23T23:36:21.464Z,72.04
2022-12-23T23:38:48.431Z,71.95
2022-12-23T23:41:22.248Z,71.84
2022-12-23T23:43:50.103Z,72.48
2022-12-23T23:46:17.041Z,72.54
2022-12-23T23:48:43.937Z,71.82
2022-12-23T23:51:10.950Z,72.38
2022-12-23T23:53:37.819Z,72.59
2022-12-23T23:56:06.699Z,71.16
2022-12-23T23:58:34.503Z,71.59
